createdAt,value
2018-06-12T00:00:10.332Z,6.77
2018-06-12T00:05:05.013Z,8.33
2018-06-12T00:09:59.489Z,5.57
2018-06-12T00:14:53.972Z,7.93
2018-06-12T00:19:48.458Z,11.07
2018-06-12T00:24:43.009Z,7.00
2018-06-12T00:29:37.502Z,10.00
2018-06-12T00:34:31.996Z,8.70
2018-06-12T00:39:26.488Z,9.33
2018-06-12T00:44:20.936Z,6.93
2018-06-12T00:49:15.387Z,9.33
2018-06-12T00:54:09.849Z,8.73
2018-06-12T00:59:04.467Z,6.87
2018-06-12T01:03:58.977Z,8.37
2018-06-12T01:08:53.468Z,8.27
2018-06-12T01:13:47.939Z,7.40
2018-06-12T01:18:42.437Z,6.23
2018-06-12T01:23:36.880Z,6.37
2018-06-12T01:28:31.304Z,10.00
2018-06-12T01:33:25.752Z,7.93
2018-06-12T01:38:20.252Z,7.87
2018-06-12T01:43:14.745Z,8.40
2018-06-12T01:48:09.161Z,6.70
2018-06-12T01:53:03.701Z,8.03
2018-06-12T01:57:58.096Z,6.40
2018-06-12T02:02:52.501Z,5.63
2018-06-12T02:07:46.938Z,6.30
2018-06-12T02:12:45.347Z,6.63
2018-06-12T02:17:39.778Z,14.67
2018-06-12T02:22:34.193Z,5.83
2018-06-12T02:27:28.625Z,6.97
2018-06-12T02:32:23.084Z,8.10
2018-06-12T02:37:17.512Z,7.47
2018-06-12T02:42:12.005Z,8.40
2018-06-12T02:47:06.421Z,7.70
2018-06-12T02:52:00.901Z,4.40
2018-06-12T02:56:55.396Z,5.97
2018-06-12T03:01:49.863Z,6.63
2018-06-12T03:06:44.353Z,7.83
2018-06-12T03:11:38.793Z,6.63
2018-06-12T03:16:33.237Z,6.17
2018-06-12T03:21:27.651Z,6.73
2018-06-12T03:26:22.092Z,6.10
2018-06-12T03:31:16.491Z,8.60
2018-06-12T03:36:10.983Z,6.37
2018-06-12T03:41:05.532Z,5.67
2018-06-12T03:45:59.996Z,7.53
2018-06-12T03:50:54.453Z,5.77
2018-06-12T03:55:48.907Z,7.60
2018-06-12T04:00:43.389Z,4.93
2018-06-12T04:05:37.900Z,4.33
2018-06-12T04:10:32.338Z,5.43
2018-06-12T04:15:26.809Z,6.10
2018-06-12T04:20:21.290Z,6.17
2018-06-12T04:25:15.705Z,6.57
2018-06-12T04:30:10.140Z,7.37
2018-06-12T04:35:04.718Z,5.30
2018-06-12T04:39:59.235Z,5.27
2018-06-12T04:44:53.662Z,5.53
2018-06-12T04:49:48.092Z,8.43
2018-06-12T04:54:42.587Z,8.13
2018-06-12T04:59:37.026Z,4.70
2018-06-12T05:04:31.464Z,7.70
2018-06-12T05:09:25.952Z,6.23
2018-06-12T05:14:20.454Z,8.33
2018-06-12T05:19:22.692Z,10.90
2018-06-12T05:24:17.250Z,11.30
2018-06-12T05:29:12.058Z,10.50
2018-06-12T05:34:15.809Z,4.70
2018-06-12T05:39:12.071Z,7.73
2018-06-12T05:44:06.655Z,6.23
2018-06-12T05:49:01.338Z,7.73
2018-06-12T05:53:55.761Z,8.10
2018-06-12T05:58:50.176Z,7.55
2018-06-12T06:03:44.642Z,5.33
2018-06-12T06:08:39.084Z,6.83
2018-06-12T06:13:33.500Z,6.67
2018-06-12T06:18:27.953Z,7.08
2018-06-12T06:23:22.348Z,4.83
2018-06-12T06:28:16.745Z,4.80
2018-06-12T06:33:11.223Z,3.57
2018-06-12T06:38:11.747Z,3.25
2018-06-12T06:43:06.554Z,3.73
2018-06-12T06:48:00.988Z,5.67
2018-06-12T06:52:55.695Z,5.43
2018-06-12T06:57:50.184Z,5.20
2018-06-12T07:02:45.098Z,3.70
2018-06-12T07:07:43.676Z,4.27
2018-06-12T07:13:01.087Z,5.83
2018-06-12T07:17:55.556Z,2.77
2018-06-12T07:22:50.755Z,4.40
2018-06-12T07:27:45.217Z,4.30
2018-06-12T07:32:39.364Z,1.33
2018-06-12T07:37:33.823Z,2.67
2018-06-12T07:42:28.213Z,4.30
2018-06-12T07:47:22.696Z,3.23
2018-06-12T07:52:17.121Z,3.93
2018-06-12T07:57:11.589Z,3.60
2018-06-12T08:02:06.096Z,3.03
2018-06-12T08:07:00.732Z,4.12
2018-06-12T08:11:55.160Z,4.37
2018-06-12T08:16:49.704Z,6.73
2018-06-12T08:21:44.192Z,3.83
2018-06-12T08:26:38.681Z,2.17
2018-06-12T08:31:32.811Z,3.02
2018-06-12T08:36:27.371Z,4.60
2018-06-12T08:41:21.805Z,3.37
2018-06-12T08:46:16.200Z,5.00
2018-06-12T08:51:10.986Z,2.30
2018-06-12T08:56:05.444Z,3.10
2018-06-12T09:01:00.095Z,1.87
2018-06-12T09:05:54.766Z,4.03
2018-06-12T09:10:50.775Z,6.55
2018-06-12T09:15:46.077Z,4.58
2018-06-12T09:20:40.523Z,1.87
2018-06-12T09:25:34.944Z,3.33
2018-06-12T09:30:32.840Z,2.60
2018-06-12T09:35:29.316Z,3.92
2018-06-12T09:40:26.804Z,4.60
2018-06-12T09:45:22.553Z,3.92
2018-06-12T09:50:19.958Z,3.50
2018-06-12T09:55:15.002Z,4.13
2018-06-12T10:00:09.688Z,4.97
2018-06-12T10:05:05.041Z,3.98
2018-06-12T10:09:59.535Z,2.80
2018-06-12T10:15:08.976Z,4.78
2018-06-12T10:20:03.780Z,3.10
2018-06-12T10:24:58.788Z,4.70
2018-06-12T10:29:53.300Z,2.80
2018-06-12T10:34:47.700Z,4.60
2018-06-12T10:39:42.140Z,4.03
2018-06-12T10:44:36.876Z,6.30
2018-06-12T10:49:31.655Z,5.05
2018-06-12T10:54:28.335Z,6.65
2018-06-12T10:59:22.829Z,2.08
2018-06-12T11:04:17.967Z,7.05
2018-06-12T11:09:12.503Z,5.20
2018-06-12T11:14:07.458Z,2.05
2018-06-12T11:19:05.884Z,2.10
2018-06-12T11:24:01.342Z,3.75
2018-06-12T11:28:58.860Z,3.85
2018-06-12T11:33:53.798Z,2.17
2018-06-12T11:38:48.394Z,2.45
2018-06-12T11:43:42.949Z,3.10
2018-06-12T11:48:37.263Z,2.80
2018-06-12T11:53:31.735Z,2.47
2018-06-12T11:58:26.395Z,2.10
2018-06-12T12:03:21.079Z,3.00
2018-06-12T12:08:15.567Z,4.08
2018-06-12T12:13:09.986Z,3.92
2018-06-12T12:18:05.192Z,4.83
2018-06-12T12:23:00.028Z,3.37
2018-06-12T12:27:54.924Z,3.33
2018-06-12T12:32:49.349Z,2.62
2018-06-12T12:37:45.902Z,4.53
2018-06-12T12:42:40.476Z,5.47
2018-06-12T12:47:35.835Z,3.95
2018-06-12T12:52:31.188Z,3.35
2018-06-12T12:57:25.761Z,3.70
2018-06-12T13:02:19.915Z,3.37
2018-06-12T13:07:14.314Z,2.98
2018-06-12T13:12:08.872Z,4.55
2018-06-12T13:17:22.794Z,4.33
2018-06-12T13:22:17.408Z,2.42
2018-06-12T13:32:41.987Z,3.42
2018-06-12T13:37:39.108Z,3.22
2018-06-12T13:42:36.570Z,3.90
2018-06-12T13:47:33.267Z,2.10
2018-06-12T13:52:29.054Z,2.27
2018-06-12T13:57:24.150Z,2.30
2018-06-12T14:02:26.846Z,4.95
2018-06-12T14:07:22.476Z,2.27
2018-06-12T14:12:24.289Z,4.37
2018-06-12T14:17:19.370Z,1.57
2018-06-12T14:22:23.478Z,5.17
2018-06-12T14:27:30.875Z,2.20
2018-06-12T14:32:30.863Z,2.35
2018-06-12T14:37:26.555Z,2.40
2018-06-12T14:42:24.960Z,3.45
2018-06-12T14:47:31.389Z,3.35
2018-06-12T14:52:29.029Z,2.52
2018-06-12T14:57:25.765Z,2.42
2018-06-12T15:02:45.545Z,2.10
2018-06-12T15:13:17.248Z,6.08
2018-06-12T15:24:02.784Z,2.52
2018-06-12T15:29:08.600Z,4.55
2018-06-12T15:34:14.132Z,3.92
2018-06-12T15:39:17.911Z,1.55
2018-06-12T15:44:13.950Z,1.82
2018-06-12T15:49:12.311Z,2.67
2018-06-12T15:54:08.686Z,1.70
2018-06-12T15:59:10.568Z,3.33
2018-06-12T16:04:09.533Z,3.42
2018-06-12T16:09:07.610Z,2.30
2018-06-12T16:14:05.506Z,4.05
2018-06-12T16:19:08.157Z,4.30
2018-06-12T16:24:04.219Z,2.97
2018-06-12T16:28:59.887Z,4.80
2018-06-12T16:33:54.743Z,3.47
2018-06-12T16:38:50.022Z,3.47
2018-06-12T16:43:44.781Z,5.73
2018-06-12T16:48:39.438Z,4.10
2018-06-12T16:53:33.937Z,4.37
2018-06-12T16:58:28.486Z,4.33
2018-06-12T17:03:23.340Z,5.47
2018-06-12T17:08:18.162Z,4.20
2018-06-12T17:13:12.737Z,3.27
2018-06-12T17:18:07.652Z,2.70
2018-06-12T17:23:02.369Z,3.00
2018-06-12T17:27:56.797Z,4.70
2018-06-12T17:32:51.328Z,2.77
2018-06-12T17:37:47.417Z,2.97
2018-06-12T17:42:42.179Z,2.30
2018-06-12T17:47:37.191Z,1.77
2018-06-12T17:52:32.037Z,2.47
2018-06-12T17:57:26.540Z,3.27
2018-06-12T18:02:21.164Z,1.53
2018-06-12T18:07:15.785Z,2.47
2018-06-12T18:12:10.400Z,2.67
2018-06-12T18:17:05.207Z,4.10
2018-06-12T18:21:59.832Z,3.57
2018-06-12T18:26:54.273Z,2.50
2018-06-12T18:31:48.797Z,4.10
2018-06-12T18:36:43.291Z,3.00
2018-06-12T18:41:37.868Z,3.90
2018-06-12T18:46:32.386Z,3.53
2018-06-12T18:51:26.812Z,6.43
2018-06-12T18:56:22.092Z,4.87
2018-06-12T19:01:16.499Z,3.60
2018-06-12T19:06:10.989Z,1.80
2018-06-12T19:11:05.503Z,3.33
2018-06-12T19:15:59.952Z,3.37
2018-06-12T19:20:54.391Z,2.60
2018-06-12T19:25:48.840Z,2.50
2018-06-12T19:30:43.240Z,3.80
2018-06-12T19:35:37.665Z,3.37
2018-06-12T19:40:32.177Z,3.80
2018-06-12T19:45:26.609Z,1.77
2018-06-12T19:50:21.085Z,2.17
2018-06-12T19:55:15.561Z,2.73
2018-06-12T20:00:10.036Z,3.17
2018-06-12T20:05:04.320Z,2.40
2018-06-12T20:09:58.448Z,2.07
2018-06-12T20:14:52.872Z,2.80
2018-06-12T20:19:47.386Z,2.33
2018-06-12T20:24:43.358Z,3.83
2018-06-12T20:29:38.030Z,4.10
2018-06-12T20:34:32.624Z,0.97
2018-06-12T20:39:27.168Z,2.17
2018-06-12T20:44:21.670Z,2.20
2018-06-12T20:49:17.224Z,1.90
2018-06-12T20:54:11.740Z,2.73
2018-06-12T20:59:06.262Z,1.93
2018-06-12T21:04:00.725Z,1.70
2018-06-12T21:08:55.223Z,2.37
2018-06-12T21:13:49.637Z,1.03
2018-06-12T21:18:44.169Z,1.57
2018-06-12T21:23:38.715Z,1.80
2018-06-12T21:28:33.357Z,1.30
2018-06-12T21:33:28.049Z,1.60
2018-06-12T21:38:22.674Z,3.00
2018-06-12T21:43:17.199Z,2.87
2018-06-12T21:48:15.546Z,1.33
2018-06-12T21:53:10.193Z,2.57
2018-06-12T21:58:04.660Z,2.50
2018-06-12T22:02:59.197Z,3.37
2018-06-12T22:07:54.209Z,1.80
2018-06-12T22:12:48.665Z,2.37
2018-06-12T22:17:51.129Z,2.10
2018-06-12T22:22:45.628Z,3.17
2018-06-12T22:27:40.081Z,3.23
2018-06-12T22:32:34.500Z,2.83
2018-06-12T22:37:28.949Z,2.73
2018-06-12T22:42:23.399Z,2.17
2018-06-12T22:47:17.833Z,1.17
2018-06-12T22:52:12.228Z,1.80
2018-06-12T22:57:06.985Z,1.77
2018-06-12T23:02:01.119Z,1.77
2018-06-12T23:06:55.565Z,2.27
2018-06-12T23:11:49.997Z,1.20
2018-06-12T23:16:44.443Z,1.30
2018-06-12T23:21:55.805Z,1.27
2018-06-12T23:26:50.200Z,1.20
2018-06-12T23:31:44.628Z,1.80
2018-06-12T23:36:39.019Z,3.27
2018-06-12T23:41:33.434Z,1.60
2018-06-12T23:46:27.876Z,1.37
2018-06-12T23:51:22.376Z,2.37
2018-06-12T23:56:16.800Z,2.43
